createdAt,value
2017-08-19T00:01:29.970Z,3.43
2017-08-19T00:03:57.471Z,2.73
2017-08-19T00:06:25.003Z,3.37
2017-08-19T00:08:52.486Z,4.07
2017-08-19T00:11:20.067Z,3.17
2017-08-19T00:13:47.534Z,3.00
2017-08-19T00:16:15.014Z,3.70
2017-08-19T00:18:42.481Z,3.17
2017-08-19T00:21:09.945Z,3.93
2017-08-19T00:23:38.223Z,2.57
2017-08-19T00:26:05.703Z,3.40
2017-08-19T00:28:33.161Z,3.43
2017-08-19T00:31:00.703Z,3.80
2017-08-19T00:33:28.978Z,5.30
2017-08-19T00:35:57.243Z,3.70
2017-08-19T00:38:24.708Z,3.40
2017-08-19T00:40:52.253Z,3.80
2017-08-19T00:43:19.728Z,3.50
2017-08-19T00:45:48.102Z,3.43
2017-08-19T00:48:16.427Z,3.80
2017-08-19T00:50:43.918Z,3.73
2017-08-19T00:53:11.393Z,3.90
2017-08-19T00:55:39.652Z,4.03
2017-08-19T00:58:07.203Z,4.43
2017-08-19T01:00:34.785Z,4.33
2017-08-19T01:03:03.070Z,4.30
2017-08-19T01:05:31.320Z,3.73
2017-08-19T01:07:58.785Z,4.80
2017-08-19T01:10:26.357Z,4.30
2017-08-19T01:12:54.595Z,5.13
2017-08-19T01:15:22.066Z,4.30
2017-08-19T01:17:49.531Z,4.40
2017-08-19T01:20:17.877Z,3.60
2017-08-19T01:22:45.352Z,4.00
2017-08-19T01:25:24.814Z,4.40
2017-08-19T01:27:53.119Z,4.80
2017-08-19T01:30:20.573Z,4.80
2017-08-19T01:32:48.108Z,4.83
2017-08-19T01:35:16.346Z,4.07
2017-08-19T01:37:43.814Z,4.37
2017-08-19T01:40:11.333Z,4.80
2017-08-19T01:42:38.832Z,5.50
2017-08-19T01:45:07.129Z,4.43
2017-08-19T01:47:35.385Z,4.50
2017-08-19T01:50:02.957Z,4.37
2017-08-19T01:52:31.318Z,4.83
2017-08-19T01:54:58.902Z,4.20
2017-08-19T01:57:26.560Z,4.50
2017-08-19T01:59:54.839Z,5.50
2017-08-19T02:02:23.092Z,3.90
2017-08-19T02:04:50.578Z,4.07
2017-08-19T02:07:18.130Z,4.20
2017-08-19T02:09:45.628Z,4.03
2017-08-19T02:12:13.151Z,3.70
2017-08-19T02:14:40.735Z,3.83
2017-08-19T02:17:08.260Z,3.47
2017-08-19T02:19:36.565Z,3.93
2017-08-19T02:22:04.050Z,3.70
2017-08-19T02:27:04.395Z,3.77
2017-08-19T02:29:31.862Z,3.43
2017-08-19T02:31:59.330Z,3.37
2017-08-19T02:34:26.804Z,2.93
2017-08-19T02:36:55.036Z,3.53
2017-08-19T02:39:22.537Z,4.20
2017-08-19T02:41:50.815Z,3.03
2017-08-19T02:44:19.065Z,4.27
2017-08-19T02:46:46.576Z,2.93
2017-08-19T02:49:14.086Z,3.00
2017-08-19T02:51:41.654Z,3.60
2017-08-19T02:54:09.895Z,3.33
2017-08-19T02:56:37.400Z,2.83
2017-08-19T02:59:04.858Z,3.17
2017-08-19T03:01:32.396Z,3.00
2017-08-19T03:03:59.870Z,3.80
2017-08-19T03:06:28.120Z,3.70
2017-08-19T03:08:55.578Z,3.50
2017-08-19T03:11:23.072Z,3.90
2017-08-19T03:13:50.533Z,3.80
2017-08-19T03:16:18.077Z,3.60
2017-08-19T03:18:46.329Z,3.50
2017-08-19T03:21:13.817Z,3.80
2017-08-19T03:23:41.280Z,3.47
2017-08-19T03:26:08.798Z,3.70
2017-08-19T03:28:36.287Z,4.03
2017-08-19T03:31:03.810Z,3.73
2017-08-19T03:33:31.264Z,3.50
2017-08-19T03:35:58.735Z,4.20
2017-08-19T03:38:26.979Z,3.70
2017-08-19T03:40:54.483Z,3.70
2017-08-19T03:43:22.013Z,3.90
2017-08-19T03:45:49.642Z,4.17
2017-08-19T03:48:17.128Z,4.10
2017-08-19T03:50:44.641Z,4.57
2017-08-19T03:53:12.188Z,3.83
2017-08-19T03:55:39.731Z,4.10
2017-08-19T03:58:07.973Z,3.80
2017-08-19T04:00:35.454Z,4.00
2017-08-19T04:03:03.735Z,3.90
2017-08-19T04:05:31.999Z,4.20
2017-08-19T04:08:00.274Z,4.30
2017-08-19T04:10:28.594Z,4.90
2017-08-19T04:12:56.116Z,4.03
2017-08-19T04:15:24.394Z,4.20
2017-08-19T04:17:52.658Z,4.60
2017-08-19T04:20:20.958Z,4.20
2017-08-19T04:22:48.439Z,4.40
2017-08-19T04:25:15.945Z,4.77
2017-08-19T04:27:43.516Z,4.50
2017-08-19T04:30:11.806Z,4.87
2017-08-19T04:32:39.290Z,4.73
2017-08-19T04:35:06.749Z,4.73
2017-08-19T04:37:34.255Z,4.60
2017-08-19T04:40:02.473Z,5.00
2017-08-19T04:42:29.972Z,4.50
2017-08-19T04:44:57.666Z,4.27
2017-08-19T04:47:25.128Z,5.00
2017-08-19T04:49:52.617Z,4.00
2017-08-19T04:52:20.110Z,4.37
2017-08-19T04:54:47.683Z,3.57
2017-08-19T04:57:15.919Z,4.10
2017-08-19T04:59:43.418Z,3.97
2017-08-19T05:02:11.663Z,3.77
2017-08-19T05:04:39.146Z,3.50
2017-08-19T05:07:07.423Z,2.70
2017-08-19T05:09:35.685Z,3.90
2017-08-19T05:12:03.152Z,3.70
2017-08-19T05:14:31.377Z,3.77
2017-08-19T05:16:58.896Z,3.60
2017-08-19T05:19:27.170Z,3.67
2017-08-19T05:21:55.434Z,2.93
2017-08-19T05:24:23.673Z,3.20
2017-08-19T05:26:51.166Z,2.83
2017-08-19T05:29:19.404Z,3.10
2017-08-19T05:31:46.880Z,2.90
2017-08-19T05:34:14.372Z,2.90
2017-08-19T05:36:42.617Z,2.70
2017-08-19T05:39:10.116Z,2.80
2017-08-19T05:41:37.617Z,2.93
2017-08-19T05:44:05.092Z,2.77
2017-08-19T05:46:32.658Z,2.50
2017-08-19T05:49:00.886Z,3.20
2017-08-19T05:51:28.405Z,2.50
2017-08-19T05:53:56.630Z,2.80
2017-08-19T05:56:24.109Z,2.17
2017-08-19T05:58:51.610Z,2.30
2017-08-19T06:01:19.150Z,2.40
2017-08-19T06:03:47.419Z,2.40
2017-08-19T06:06:15.678Z,2.97
2017-08-19T06:08:43.229Z,2.30
2017-08-19T06:11:10.816Z,2.40
2017-08-19T06:13:38.380Z,2.30
2017-08-19T06:16:05.849Z,1.80
2017-08-19T06:18:33.370Z,1.87
2017-08-19T06:21:00.849Z,1.90
2017-08-19T06:23:28.338Z,2.10
2017-08-19T06:25:55.829Z,2.37
2017-08-19T06:28:23.421Z,2.30
2017-08-19T06:30:51.732Z,2.03
2017-08-19T06:33:19.342Z,2.03
2017-08-19T06:35:46.922Z,2.00
2017-08-19T06:38:14.415Z,2.20
2017-08-19T06:40:41.922Z,1.93
2017-08-19T06:43:10.190Z,2.00
2017-08-19T06:45:37.652Z,1.93
2017-08-19T06:48:05.911Z,2.20
2017-08-19T06:50:33.366Z,1.97
2017-08-19T06:53:00.942Z,2.87
2017-08-19T06:55:28.419Z,2.10
2017-08-19T06:57:55.882Z,1.80
2017-08-19T07:00:23.345Z,2.40
2017-08-19T07:02:50.915Z,2.60
2017-08-19T07:05:18.426Z,2.13
2017-08-19T07:07:45.948Z,2.77
2017-08-19T07:10:13.459Z,2.40
2017-08-19T07:12:40.940Z,2.70
2017-08-19T07:15:08.460Z,2.90
2017-08-19T07:17:36.719Z,2.20
2017-08-19T07:20:04.300Z,2.50
2017-08-19T07:22:32.558Z,3.27
2017-08-19T07:25:00.126Z,3.10
2017-08-19T07:27:27.611Z,2.87
2017-08-19T07:29:55.086Z,2.70
2017-08-19T07:32:23.413Z,3.17
2017-08-19T07:34:51.692Z,2.63
2017-08-19T07:37:19.958Z,2.77
2017-08-19T07:39:47.469Z,2.47
2017-08-19T07:42:14.996Z,2.33
2017-08-19T07:44:43.258Z,2.37
2017-08-19T07:47:11.526Z,2.40
2017-08-19T07:49:39.096Z,2.57
2017-08-19T07:52:07.334Z,2.67
2017-08-19T07:54:34.817Z,2.67
2017-08-19T07:57:02.274Z,2.30
2017-08-19T07:59:29.752Z,2.33
2017-08-19T08:01:57.978Z,2.10
2017-08-19T08:04:25.507Z,2.43
2017-08-19T08:06:53.027Z,2.50
2017-08-19T08:09:21.271Z,2.00
2017-08-19T08:11:48.750Z,2.00
2017-08-19T08:14:16.223Z,2.47
2017-08-19T08:16:44.458Z,2.07
2017-08-19T08:19:11.938Z,2.00
2017-08-19T08:21:39.453Z,2.17
2017-08-19T08:24:06.965Z,2.70
2017-08-19T08:26:34.471Z,2.10
2017-08-19T08:29:01.976Z,2.13
2017-08-19T08:31:29.457Z,1.80
2017-08-19T08:33:56.940Z,1.47
2017-08-19T08:36:24.440Z,1.87
2017-08-19T08:38:51.925Z,2.07
2017-08-19T08:41:19.516Z,1.77
2017-08-19T08:43:47.018Z,1.60
2017-08-19T08:46:14.501Z,1.50
2017-08-19T08:48:41.974Z,1.53
2017-08-19T08:51:09.505Z,2.07
2017-08-19T08:53:37.778Z,1.73
2017-08-19T08:56:06.056Z,2.47
2017-08-19T08:58:34.290Z,2.00
2017-08-19T09:01:01.763Z,2.07
2017-08-19T09:03:29.324Z,2.20
2017-08-19T09:05:56.811Z,1.70
2017-08-19T09:08:25.032Z,2.43
2017-08-19T09:10:52.494Z,2.07
2017-08-19T09:13:19.974Z,2.00
2017-08-19T09:15:47.465Z,2.37
2017-08-19T09:18:14.957Z,2.50
2017-08-19T09:20:42.447Z,2.53
2017-08-19T09:23:09.924Z,2.10
2017-08-19T09:25:37.421Z,2.40
2017-08-19T09:28:04.938Z,2.17
2017-08-19T09:30:33.208Z,2.80
2017-08-19T09:33:01.467Z,2.70
2017-08-19T09:35:28.943Z,2.77
2017-08-19T09:37:57.220Z,2.73
2017-08-19T09:40:25.471Z,2.80
2017-08-19T09:42:52.962Z,2.40
2017-08-19T09:45:20.535Z,2.60
2017-08-19T09:47:48.063Z,2.87
2017-08-19T09:50:16.372Z,2.50
2017-08-19T09:52:43.860Z,2.90
2017-08-19T09:55:11.363Z,2.67
2017-08-19T09:57:39.565Z,2.93
2017-08-19T10:00:08.197Z,2.70
2017-08-19T10:02:35.756Z,2.33
2017-08-19T10:05:03.345Z,2.93
2017-08-19T10:07:30.858Z,2.57
2017-08-19T10:09:58.341Z,1.77
2017-08-19T10:12:25.794Z,2.30
2017-08-19T10:14:53.276Z,2.00
2017-08-19T10:17:20.759Z,2.63
2017-08-19T10:19:48.284Z,2.20
2017-08-19T10:22:16.502Z,2.50
2017-08-19T10:24:43.984Z,2.70
2017-08-19T10:27:11.439Z,2.50
2017-08-19T10:29:39.002Z,2.50
2017-08-19T10:32:06.484Z,1.97
2017-08-19T10:34:34.789Z,2.17
2017-08-19T10:37:02.298Z,1.73
2017-08-19T10:39:29.867Z,2.07
2017-08-19T10:41:58.092Z,2.13
2017-08-19T10:44:25.558Z,5.43
2017-08-19T10:46:53.046Z,2.17
2017-08-19T10:49:20.608Z,1.97
2017-08-19T10:51:48.846Z,2.50
2017-08-19T10:54:16.357Z,2.00
2017-08-19T10:56:44.615Z,2.30
2017-08-19T10:59:12.096Z,1.83
2017-08-19T11:01:39.630Z,2.33
2017-08-19T11:04:07.195Z,2.50
2017-08-19T11:06:35.437Z,3.17
2017-08-19T11:09:02.928Z,2.60
2017-08-19T11:11:31.163Z,2.23
2017-08-19T11:13:58.657Z,3.13
2017-08-19T11:16:26.905Z,2.63
2017-08-19T11:18:54.396Z,2.40
2017-08-19T11:21:22.662Z,3.13
2017-08-19T11:23:50.894Z,2.90
2017-08-19T11:26:18.389Z,2.50
2017-08-19T11:28:45.874Z,2.43
2017-08-19T11:31:13.359Z,2.77
2017-08-19T11:33:40.862Z,2.60
2017-08-19T11:36:08.426Z,2.30
2017-08-19T11:38:36.660Z,2.40
2017-08-19T11:41:04.130Z,2.67
2017-08-19T11:43:31.576Z,2.97
2017-08-19T11:45:59.081Z,2.80
2017-08-19T11:48:27.304Z,2.70
2017-08-19T11:50:54.781Z,2.60
2017-08-19T11:53:22.261Z,2.43
2017-08-19T11:55:50.536Z,2.53
2017-08-19T11:58:18.836Z,2.40
2017-08-19T12:00:46.327Z,2.37
2017-08-19T12:03:13.796Z,2.73
2017-08-19T12:05:41.281Z,1.90
2017-08-19T12:08:08.759Z,1.77
2017-08-19T12:10:36.223Z,2.00
2017-08-19T12:13:03.714Z,2.17
2017-08-19T12:15:31.214Z,2.23
2017-08-19T12:17:59.446Z,2.07
2017-08-19T12:20:26.936Z,1.93
2017-08-19T12:22:54.418Z,1.70
2017-08-19T12:25:21.913Z,2.17
2017-08-19T12:27:49.419Z,2.00
2017-08-19T12:30:17.658Z,1.80
2017-08-19T12:32:45.152Z,2.07
2017-08-19T12:35:13.375Z,1.60
2017-08-19T12:37:40.848Z,1.87
2017-08-19T12:40:08.343Z,2.07
2017-08-19T12:42:36.597Z,2.07
2017-08-19T12:45:04.109Z,1.97
2017-08-19T12:47:31.566Z,1.70
2017-08-19T12:49:59.053Z,2.93
2017-08-19T12:52:26.515Z,1.73
2017-08-19T12:54:54.092Z,1.23
2017-08-19T12:57:21.652Z,1.60
2017-08-19T12:59:49.112Z,1.70
2017-08-19T13:02:17.533Z,1.57
2017-08-19T13:04:44.997Z,1.70
2017-08-19T13:07:12.465Z,1.80
2017-08-19T13:09:39.931Z,1.60
2017-08-19T13:12:07.411Z,1.70
2017-08-19T13:14:34.900Z,2.03
2017-08-19T13:17:02.375Z,1.63
2017-08-19T13:19:29.900Z,1.70
2017-08-19T13:21:58.164Z,1.50
2017-08-19T13:24:26.413Z,2.03
2017-08-19T13:26:53.895Z,1.40
2017-08-19T13:29:22.138Z,1.70
2017-08-19T13:31:49.618Z,1.87
2017-08-19T13:34:17.093Z,1.90
2017-08-19T13:36:45.346Z,1.63
2017-08-19T13:39:12.816Z,1.43
2017-08-19T13:41:41.079Z,1.33
2017-08-19T13:44:08.637Z,1.53
2017-08-19T13:46:36.136Z,1.13
2017-08-19T13:49:03.663Z,1.53
2017-08-19T13:51:31.211Z,1.70
2017-08-19T13:53:58.795Z,1.70
2017-08-19T13:56:27.044Z,1.60
2017-08-19T13:58:54.527Z,1.30
2017-08-19T14:01:22.056Z,2.00
2017-08-19T14:03:49.640Z,1.67
2017-08-19T14:06:17.894Z,1.60
2017-08-19T14:08:45.452Z,1.73
2017-08-19T14:11:13.733Z,1.30
2017-08-19T14:13:41.200Z,1.50
2017-08-19T14:16:09.433Z,1.27
2017-08-19T14:18:36.903Z,1.57
2017-08-19T14:21:04.392Z,1.40
2017-08-19T14:23:32.642Z,1.30
2017-08-19T14:26:00.115Z,1.73
2017-08-19T14:28:27.582Z,1.30
2017-08-19T14:30:55.861Z,1.30
2017-08-19T14:33:24.105Z,1.40
2017-08-19T14:35:51.699Z,1.67
2017-08-19T14:38:19.258Z,1.70
2017-08-19T14:40:47.496Z,1.30
2017-08-19T14:43:14.979Z,1.50
2017-08-19T14:45:43.228Z,1.47
2017-08-19T14:48:10.720Z,1.47
2017-08-19T14:50:38.993Z,1.30
2017-08-19T14:53:07.888Z,1.20
2017-08-19T14:55:36.133Z,1.50
2017-08-19T14:58:03.614Z,1.40
2017-08-19T15:00:31.869Z,1.63
2017-08-19T15:02:59.350Z,1.20
2017-08-19T15:05:27.623Z,1.30
2017-08-19T15:07:55.908Z,1.60
2017-08-19T15:10:23.455Z,0.90
2017-08-19T15:12:50.973Z,1.30
2017-08-19T15:15:18.456Z,1.10
2017-08-19T15:17:46.737Z,1.40
2017-08-19T15:20:14.989Z,1.10
2017-08-19T15:22:42.462Z,1.20
2017-08-19T15:25:10.047Z,1.20
2017-08-19T15:27:37.593Z,1.10
2017-08-19T15:30:05.854Z,1.33
2017-08-19T15:32:33.342Z,1.20
2017-08-19T15:35:00.891Z,1.17
2017-08-19T15:37:29.132Z,1.10
2017-08-19T15:39:56.602Z,1.03
2017-08-19T15:42:24.092Z,1.43
2017-08-19T15:44:51.634Z,1.23
2017-08-19T15:47:19.905Z,1.10
2017-08-19T15:49:48.141Z,1.07
2017-08-19T15:52:15.632Z,1.30
2017-08-19T15:54:43.883Z,1.17
2017-08-19T15:57:11.353Z,1.50
2017-08-19T15:59:38.859Z,1.00
2017-08-19T16:02:06.348Z,1.00
2017-08-19T16:04:33.825Z,1.17
2017-08-19T16:07:01.334Z,1.00
2017-08-19T16:09:28.867Z,0.93
2017-08-19T16:11:57.123Z,1.17
2017-08-19T16:14:24.676Z,1.13
2017-08-19T16:16:52.242Z,1.33
2017-08-19T16:19:20.492Z,1.20
2017-08-19T16:21:47.968Z,0.83
2017-08-19T16:24:15.430Z,0.80
2017-08-19T16:26:43.698Z,1.10
2017-08-19T16:29:11.182Z,1.00
2017-08-19T16:31:39.436Z,1.63
2017-08-19T16:34:06.938Z,0.93
2017-08-19T16:36:34.468Z,0.90
2017-08-19T16:39:02.726Z,1.10
2017-08-19T16:41:30.207Z,0.90
2017-08-19T16:43:57.680Z,0.90
2017-08-19T16:46:25.142Z,1.30
2017-08-19T16:48:52.658Z,0.90
2017-08-19T16:51:20.947Z,1.13
2017-08-19T16:53:48.427Z,1.37
2017-08-19T16:56:15.928Z,1.03
2017-08-19T16:58:43.486Z,1.00
2017-08-19T17:01:11.059Z,1.20
2017-08-19T17:03:38.521Z,1.30
2017-08-19T17:06:06.787Z,1.50
2017-08-19T17:08:34.232Z,1.00
2017-08-19T17:11:01.720Z,1.30
2017-08-19T17:13:29.980Z,1.33
2017-08-19T17:15:57.588Z,1.13
2017-08-19T17:18:25.063Z,1.70
2017-08-19T17:20:52.517Z,1.00
2017-08-19T17:23:20.058Z,1.10
2017-08-19T17:25:47.561Z,1.00
2017-08-19T17:28:15.158Z,1.60
2017-08-19T17:30:42.674Z,1.07
2017-08-19T17:33:10.191Z,1.53
2017-08-19T17:35:37.699Z,1.30
2017-08-19T17:38:05.254Z,2.13
2017-08-19T17:40:32.737Z,1.40
2017-08-19T17:43:00.992Z,1.37
2017-08-19T17:45:28.450Z,1.10
2017-08-19T17:47:56.772Z,1.33
2017-08-19T17:50:24.243Z,1.67
2017-08-19T17:52:51.725Z,1.53
2017-08-19T17:55:19.192Z,1.67
2017-08-19T17:57:46.654Z,1.50
2017-08-19T18:00:14.913Z,1.00
2017-08-19T18:02:42.534Z,1.47
2017-08-19T18:05:10.003Z,1.10
2017-08-19T18:07:37.477Z,1.30
2017-08-19T18:10:04.945Z,1.40
2017-08-19T18:12:32.401Z,1.77
2017-08-19T18:14:59.882Z,1.80
2017-08-19T18:17:28.133Z,1.57
2017-08-19T18:19:55.604Z,1.63
2017-08-19T18:22:23.162Z,1.70
2017-08-19T18:24:50.705Z,1.70
2017-08-19T18:27:18.166Z,1.93
2017-08-19T18:29:45.644Z,1.73
2017-08-19T18:32:13.920Z,1.80
2017-08-19T18:34:42.191Z,1.87
2017-08-19T18:37:09.677Z,1.80
2017-08-19T18:39:37.142Z,1.73
2017-08-19T18:42:04.671Z,1.67
2017-08-19T18:44:32.965Z,1.63
2017-08-19T18:47:00.475Z,2.00
2017-08-19T18:49:27.957Z,1.70
2017-08-19T18:51:56.202Z,1.90
2017-08-19T18:54:23.791Z,2.13
2017-08-19T18:56:52.031Z,3.37
2017-08-19T18:59:19.615Z,2.40
2017-08-19T19:01:47.873Z,1.83
2017-08-19T19:04:15.329Z,2.07
2017-08-19T19:06:42.919Z,3.00
2017-08-19T19:09:11.287Z,2.40
2017-08-19T19:11:38.802Z,2.13
2017-08-19T19:14:06.306Z,2.30
2017-08-19T19:16:34.533Z,2.60
2017-08-19T19:19:02.088Z,2.60
2017-08-19T19:21:29.571Z,2.70
2017-08-19T19:23:57.156Z,2.30
2017-08-19T19:26:25.381Z,3.00
2017-08-19T19:28:52.879Z,2.50
2017-08-19T19:31:20.452Z,2.33
2017-08-19T19:33:48.699Z,3.37
2017-08-19T19:36:16.321Z,2.10
2017-08-19T19:38:43.879Z,3.13
2017-08-19T19:41:11.388Z,2.60
2017-08-19T19:43:38.951Z,3.60
2017-08-19T19:46:06.410Z,2.97
2017-08-19T19:48:34.682Z,3.10
2017-08-19T19:51:02.146Z,3.30
2017-08-19T19:53:30.373Z,3.30
2017-08-19T19:55:57.876Z,2.70
2017-08-19T19:58:26.125Z,3.10
2017-08-19T20:00:53.595Z,3.20
2017-08-19T20:03:21.062Z,2.97
2017-08-19T20:05:49.320Z,3.17
2017-08-19T20:08:16.820Z,2.77
2017-08-19T20:10:44.350Z,2.47
2017-08-19T20:13:11.921Z,2.90
2017-08-19T20:15:40.133Z,2.93
2017-08-19T20:18:07.646Z,3.20
2017-08-19T20:20:35.938Z,3.13
2017-08-19T20:23:03.524Z,3.30
2017-08-19T20:25:31.026Z,3.47
2017-08-19T20:27:58.525Z,3.67
2017-08-19T20:30:25.996Z,2.77
2017-08-19T20:32:53.493Z,3.20
2017-08-19T20:35:20.952Z,2.83
2017-08-19T20:37:48.423Z,3.03
2017-08-19T20:40:16.691Z,3.77
2017-08-19T20:42:44.148Z,3.03
2017-08-19T20:45:12.426Z,2.67
2017-08-19T20:47:40.659Z,3.80
2017-08-19T20:50:08.114Z,2.60
2017-08-19T20:52:40.648Z,2.57
2017-08-19T20:55:09.157Z,2.77
2017-08-19T20:57:36.639Z,2.60
2017-08-19T21:00:04.113Z,2.73
2017-08-19T21:02:31.584Z,3.60
2017-08-19T21:04:59.822Z,3.57
2017-08-19T21:07:27.373Z,3.50
2017-08-19T21:09:54.877Z,3.53
2017-08-19T21:12:23.283Z,3.80
2017-08-19T21:14:50.758Z,3.50
2017-08-19T21:17:18.228Z,3.53
2017-08-19T21:19:45.697Z,3.17
2017-08-19T21:22:13.170Z,3.40
2017-08-19T21:24:40.634Z,4.43
2017-08-19T21:27:08.903Z,4.80
2017-08-19T21:29:36.464Z,3.97
2017-08-19T21:32:03.933Z,4.20
2017-08-19T21:34:32.194Z,4.33
2017-08-19T21:36:59.665Z,4.03
2017-08-19T21:39:27.899Z,3.47
2017-08-19T21:41:55.436Z,3.87
2017-08-19T21:44:22.971Z,3.03
2017-08-19T21:46:51.218Z,3.90
2017-08-19T21:49:18.698Z,3.27
2017-08-19T21:51:46.945Z,3.70
2017-08-19T21:54:14.418Z,4.27
2017-08-19T21:56:42.696Z,3.73
2017-08-19T21:59:11.009Z,3.17
2017-08-19T22:01:38.523Z,3.10
2017-08-19T22:04:06.760Z,3.03
2017-08-19T22:06:34.226Z,3.10
2017-08-19T22:09:01.707Z,3.00
2017-08-19T22:11:29.281Z,2.20
2017-08-19T22:13:57.550Z,2.53
2017-08-19T22:16:25.868Z,2.23
2017-08-19T22:18:53.376Z,2.30
2017-08-19T22:21:20.978Z,2.37
2017-08-19T22:23:48.496Z,2.00
2017-08-19T22:26:15.970Z,1.90
2017-08-19T22:28:43.479Z,2.47
2017-08-19T22:31:10.963Z,2.83
2017-08-19T22:33:38.429Z,1.93
2017-08-19T22:36:06.663Z,2.23
2017-08-19T22:38:34.152Z,2.40
2017-08-19T22:41:01.608Z,2.77
2017-08-19T22:43:29.094Z,2.63
2017-08-19T22:45:56.635Z,2.60
2017-08-19T22:48:24.183Z,2.10
2017-08-19T22:50:51.657Z,2.40
2017-08-19T22:53:20.013Z,2.23
2017-08-19T22:55:47.483Z,2.73
2017-08-19T22:58:15.751Z,2.30
2017-08-19T23:00:43.291Z,2.50
2017-08-19T23:03:10.788Z,2.60
2017-08-19T23:05:38.261Z,2.53
2017-08-19T23:08:05.769Z,2.47
2017-08-19T23:10:33.325Z,2.20
2017-08-19T23:13:00.795Z,2.40
2017-08-19T23:15:28.255Z,2.30
2017-08-19T23:17:56.490Z,2.27
2017-08-19T23:20:23.982Z,2.53
2017-08-19T23:22:51.447Z,3.07
2017-08-19T23:25:19.695Z,2.17
2017-08-19T23:27:47.181Z,2.50
2017-08-19T23:30:15.458Z,2.20
2017-08-19T23:32:43.733Z,2.40
2017-08-19T23:35:11.990Z,2.33
2017-08-19T23:37:39.460Z,3.03
2017-08-19T23:40:07.754Z,2.87
2017-08-19T23:42:35.244Z,2.57
2017-08-19T23:45:02.704Z,2.70
2017-08-19T23:47:30.158Z,2.63
2017-08-19T23:49:57.658Z,2.50
2017-08-19T23:52:25.117Z,3.23
2017-08-19T23:54:52.687Z,2.50
2017-08-19T23:57:20.954Z,2.90
2017-08-19T23:59:49.236Z,2.73
